createdAt,value
2023-05-12T00:00:15.301Z,1
2023-05-12T00:01:14.616Z,1
2023-05-12T00:02:15.277Z,0
2023-05-12T00:03:14.734Z,0
2023-05-12T00:04:16.752Z,0
2023-05-12T00:06:14.242Z,0
2023-05-12T00:07:15.159Z,1
2023-05-12T00:08:15.301Z,1
2023-05-12T00:09:15.575Z,1
2023-05-12T00:10:14.616Z,1
2023-05-12T00:11:15.343Z,1
2023-05-12T00:13:15.251Z,4
2023-05-12T00:14:15.261Z,4
2023-05-12T00:15:15.328Z,4
2023-05-12T00:16:15.321Z,4
2023-05-12T00:17:14.882Z,1
2023-05-12T00:18:15.521Z,1
2023-05-12T00:19:15.998Z,1
2023-05-12T00:21:14.508Z,1
2023-05-12T00:22:14.910Z,1
2023-05-12T00:23:14.861Z,1
2023-05-12T00:24:13.987Z,1
2023-05-12T00:25:15.303Z,1
2023-05-12T00:26:15.512Z,1
2023-05-12T00:27:13.981Z,3
2023-05-12T00:28:15.168Z,3
2023-05-12T00:29:15.203Z,3
2023-05-12T00:30:15.443Z,3
2023-05-12T00:31:14.075Z,3
2023-05-12T00:32:15.231Z,0
2023-05-12T00:33:15.514Z,0
2023-05-12T00:35:14.741Z,0
2023-05-12T00:36:15.005Z,0
2023-05-12T00:37:14.993Z,1
2023-05-12T00:38:15.723Z,1
2023-05-12T00:41:14.504Z,1
2023-05-12T00:42:15.062Z,3
2023-05-12T00:43:15.386Z,3
2023-05-12T00:44:15.451Z,3
2023-05-12T00:45:15.361Z,3
2023-05-12T00:46:15.325Z,3
2023-05-12T00:47:15.401Z,1
2023-05-12T00:48:14.985Z,1
2023-05-12T00:49:14.918Z,1
2023-05-12T00:50:15.303Z,1
2023-05-12T00:51:15.442Z,1
2023-05-12T00:52:14.806Z,4
2023-05-12T00:53:14.583Z,4
2023-05-12T00:54:15.261Z,4
2023-05-12T00:55:15.480Z,4
2023-05-12T00:56:15.502Z,4
2023-05-12T00:57:14.621Z,3
2023-05-12T00:58:14.885Z,3
2023-05-12T00:59:15.304Z,3
2023-05-12T01:00:15.705Z,3
2023-05-12T01:01:14.598Z,3
2023-05-12T01:02:15.448Z,1
2023-05-12T01:03:16.051Z,1
2023-05-12T01:04:15.489Z,1
2023-05-12T01:05:14.448Z,1
2023-05-12T01:06:15.301Z,1
2023-05-12T01:07:15.572Z,1
2023-05-12T01:08:14.699Z,1
2023-05-12T01:09:14.834Z,1
2023-05-12T01:10:15.266Z,1
2023-05-12T01:11:15.410Z,1
2023-05-12T01:12:15.765Z,0
2023-05-12T01:16:14.786Z,0
2023-05-12T01:17:15.406Z,1
2023-05-12T01:18:15.827Z,1
2023-05-12T01:19:15.187Z,1
2023-05-12T01:20:15.303Z,1
2023-05-12T01:21:15.413Z,1
2023-05-12T01:22:14.654Z,3
2023-05-12T01:23:14.674Z,3
2023-05-12T01:24:14.930Z,3
2023-05-12T01:25:15.413Z,3
2023-05-12T01:26:14.585Z,3
2023-05-12T01:27:15.066Z,0
2023-05-12T01:28:15.349Z,0
2023-05-12T01:29:15.269Z,0
2023-05-12T01:30:14.831Z,0
2023-05-12T01:31:15.077Z,0
2023-05-12T01:32:15.255Z,0
2023-05-12T01:33:15.675Z,0
2023-05-12T01:35:14.812Z,0
2023-05-12T01:36:15.239Z,0
2023-05-12T01:37:15.173Z,4
2023-05-12T01:38:15.043Z,4
2023-05-12T01:39:15.235Z,4
2023-05-12T01:40:14.857Z,4
2023-05-12T01:42:15.397Z,1
2023-05-12T01:43:14.725Z,1
2023-05-12T01:44:15.008Z,1
2023-05-12T01:45:15.355Z,1
2023-05-12T01:46:15.612Z,1
2023-05-12T01:47:14.644Z,4
2023-05-12T01:48:15.373Z,4
2023-05-12T01:49:14.605Z,4
2023-05-12T01:50:15.255Z,4
2023-05-12T01:51:15.235Z,4
2023-05-12T01:52:14.677Z,1
2023-05-12T01:53:14.845Z,1
2023-05-12T01:54:15.408Z,1
2023-05-12T01:55:15.475Z,1
2023-05-12T01:57:14.683Z,4
2023-05-12T01:58:15.479Z,4
2023-05-12T01:59:14.850Z,4
2023-05-12T02:00:15.036Z,4
2023-05-12T02:01:15.381Z,4
2023-05-12T02:02:15.742Z,1
2023-05-12T02:03:15.779Z,1
2023-05-12T02:04:16.064Z,1
2023-05-12T02:05:14.968Z,1
2023-05-12T02:06:15.110Z,1
2023-05-12T02:07:15.499Z,1
2023-05-12T02:08:14.639Z,1
2023-05-12T02:09:15.002Z,1
2023-05-12T02:10:15.426Z,1
2023-05-12T02:11:15.347Z,1
2023-05-12T02:14:15.223Z,3
2023-05-12T02:15:14.869Z,3
2023-05-12T02:16:15.319Z,3
2023-05-12T02:17:14.684Z,1
2023-05-12T02:18:15.124Z,1
2023-05-12T02:19:15.244Z,1
2023-05-12T02:20:15.297Z,1
2023-05-12T02:21:15.068Z,1
2023-05-12T02:22:15.197Z,0
2023-05-12T02:23:14.628Z,0
2023-05-12T02:24:17.154Z,0
2023-05-12T02:25:15.197Z,0
2023-05-12T02:26:15.393Z,0
2023-05-12T02:27:14.529Z,1
2023-05-12T02:28:14.883Z,1
2023-05-12T02:29:15.424Z,1
2023-05-12T02:30:14.728Z,1
2023-05-12T02:31:14.848Z,1
2023-05-12T02:32:15.704Z,4
2023-05-12T02:35:15.059Z,4
2023-05-12T02:36:14.986Z,4
2023-05-12T02:37:15.154Z,3
2023-05-12T02:38:15.101Z,3
2023-05-12T02:39:15.351Z,3
2023-05-12T02:40:14.753Z,3
2023-05-12T02:41:15.447Z,3
2023-05-12T02:42:14.829Z,4
2023-05-12T02:43:15.071Z,4
2023-05-12T02:44:14.648Z,4
2023-05-12T02:45:14.956Z,4
2023-05-12T02:46:15.338Z,4
2023-05-12T02:47:15.411Z,3
2023-05-12T02:50:14.497Z,3
2023-05-12T02:51:14.276Z,3
2023-05-12T02:52:14.969Z,0
2023-05-12T02:53:15.453Z,0
2023-05-12T02:54:15.760Z,0
2023-05-12T02:55:15.243Z,0
2023-05-12T02:56:15.519Z,0
2023-05-12T02:57:15.181Z,0
2023-05-12T02:58:14.939Z,0
2023-05-12T02:59:15.039Z,0
2023-05-12T03:00:14.727Z,0
2023-05-12T03:02:15.575Z,0
2023-05-12T03:03:16.214Z,0
2023-05-12T03:04:14.664Z,0
2023-05-12T03:05:14.985Z,0
2023-05-12T03:06:15.457Z,0
2023-05-12T03:07:15.514Z,1
2023-05-12T03:11:14.748Z,1
2023-05-12T03:12:14.907Z,5
2023-05-12T03:13:15.029Z,5
2023-05-12T03:14:15.540Z,5
2023-05-12T03:15:14.613Z,5
2023-05-12T03:16:14.900Z,5
2023-05-12T03:17:15.182Z,1
2023-05-12T03:18:15.263Z,1
2023-05-12T03:19:15.641Z,1
2023-05-12T03:20:15.500Z,1
2023-05-12T03:23:14.850Z,1
2023-05-12T03:24:14.899Z,1
2023-05-12T03:25:13.708Z,1
2023-05-12T03:26:15.502Z,1
2023-05-12T03:27:14.660Z,4
2023-05-12T03:28:14.681Z,4
2023-05-12T03:29:14.822Z,4
2023-05-12T03:30:15.428Z,4
2023-05-12T03:31:15.402Z,4
2023-05-12T03:33:14.743Z,0
2023-05-12T03:34:15.426Z,0
2023-05-12T03:35:14.859Z,0
2023-05-12T03:36:14.783Z,0
2023-05-12T03:37:15.127Z,0
2023-05-12T03:38:15.395Z,0
2023-05-12T03:39:14.468Z,0
2023-05-12T03:40:14.887Z,0
2023-05-12T03:41:15.136Z,0
2023-05-12T03:42:15.265Z,5
2023-05-12T03:43:15.533Z,5
2023-05-12T03:46:15.338Z,5
2023-05-12T03:47:15.427Z,7
2023-05-12T03:48:15.013Z,7
2023-05-12T03:49:14.786Z,7
2023-05-12T03:50:14.454Z,7
2023-05-12T03:51:14.845Z,7
2023-05-12T03:52:15.134Z,1
2023-05-12T03:53:15.433Z,1
2023-05-12T03:56:15.263Z,1
2023-05-12T03:57:15.520Z,5
2023-05-12T03:58:14.748Z,5
2023-05-12T03:59:14.852Z,5
2023-05-12T04:00:15.036Z,5
2023-05-12T04:01:15.338Z,5
2023-05-12T04:02:14.932Z,1
2023-05-12T04:03:14.395Z,1
2023-05-12T04:04:15.637Z,1
2023-05-12T04:05:15.390Z,1
2023-05-12T04:07:14.334Z,4
2023-05-12T04:08:14.665Z,4
2023-05-12T04:09:15.279Z,4
2023-05-12T04:10:14.697Z,4
2023-05-12T04:11:15.421Z,4
2023-05-12T04:12:15.594Z,3
2023-05-12T04:13:14.634Z,3
2023-05-12T04:14:14.776Z,3
2023-05-12T04:15:15.057Z,3
2023-05-12T04:16:15.708Z,3
2023-05-12T04:17:14.724Z,1
2023-05-12T04:18:14.938Z,1
2023-05-12T04:19:15.723Z,1
2023-05-12T04:20:15.558Z,1
2023-05-12T04:24:14.759Z,3
2023-05-12T04:25:14.888Z,3
2023-05-12T04:26:14.462Z,3
2023-05-12T04:27:14.368Z,3
2023-05-12T04:28:17.236Z,3
2023-05-12T04:29:15.310Z,3
2023-05-12T04:30:14.589Z,3
2023-05-12T04:31:14.758Z,3
2023-05-12T04:32:15.894Z,7
2023-05-12T04:34:14.956Z,7
2023-05-12T04:36:14.716Z,7
2023-05-12T04:37:15.460Z,3
2023-05-12T04:38:14.758Z,3
2023-05-12T04:39:14.957Z,3
2023-05-12T04:40:15.425Z,3
2023-05-12T04:41:14.604Z,3
2023-05-12T04:42:14.797Z,3
2023-05-12T04:44:04.656Z,3
2023-05-12T04:45:15.345Z,3
2023-05-12T04:46:15.348Z,3
2023-05-12T04:47:14.037Z,1
2023-05-12T04:48:15.501Z,1
2023-05-12T04:49:15.475Z,1
2023-05-12T04:50:15.256Z,1
2023-05-12T04:51:15.309Z,1
2023-05-12T04:52:15.466Z,0
2023-05-12T04:53:17.723Z,0
2023-05-12T04:54:15.650Z,0
2023-05-12T04:55:15.053Z,0
2023-05-12T04:56:15.506Z,0
2023-05-12T05:00:14.813Z,0
2023-05-12T05:01:15.313Z,0
2023-05-12T05:02:15.497Z,4
2023-05-12T05:03:15.880Z,4
2023-05-12T05:04:15.192Z,4
2023-05-12T05:05:14.963Z,4
2023-05-12T05:09:14.893Z,1
2023-05-12T05:10:15.131Z,1
2023-05-12T05:11:15.156Z,1
2023-05-12T05:12:15.286Z,4
2023-05-12T05:13:15.306Z,4
2023-05-12T05:14:15.291Z,4
2023-05-12T05:15:14.572Z,4
2023-05-12T05:16:15.507Z,4
2023-05-12T05:17:14.824Z,3
2023-05-12T05:18:15.503Z,3
2023-05-12T05:20:27.716Z,3
2023-05-12T05:22:14.786Z,1
2023-05-12T05:23:15.309Z,1
2023-05-12T05:25:14.722Z,1
2023-05-12T05:26:14.563Z,1
2023-05-12T05:27:14.825Z,1
2023-05-12T05:30:14.839Z,1
2023-05-12T05:31:14.754Z,1
2023-05-12T05:32:14.854Z,0
2023-05-12T05:33:15.741Z,0
2023-05-12T05:34:14.933Z,0
2023-05-12T05:37:15.340Z,4
2023-05-12T05:38:14.814Z,4
2023-05-12T05:39:14.855Z,4
2023-05-12T05:40:15.279Z,4
2023-05-12T05:41:14.618Z,4
2023-05-12T05:42:15.537Z,1
2023-05-12T05:43:14.570Z,1
2023-05-12T05:44:15.287Z,1
2023-05-12T05:45:15.505Z,1
2023-05-12T05:46:15.350Z,1
2023-05-12T05:47:16.103Z,3
2023-05-12T05:48:15.200Z,3
2023-05-12T05:51:15.361Z,3
2023-05-12T05:52:15.216Z,1
2023-05-12T05:53:15.591Z,1
2023-05-12T05:54:15.389Z,1
2023-05-12T05:55:15.014Z,1
2023-05-12T05:56:15.339Z,1
2023-05-12T05:57:15.372Z,1
2023-05-12T05:58:14.627Z,1
2023-05-12T05:59:15.296Z,1
2023-05-12T06:00:15.067Z,1
2023-05-12T06:01:14.809Z,1
2023-05-12T06:02:15.344Z,3
2023-05-12T06:03:16.167Z,3
2023-05-12T06:04:15.236Z,3
2023-05-12T06:05:19.173Z,3
2023-05-12T06:07:14.424Z,1
2023-05-12T06:08:15.937Z,1
2023-05-12T06:09:14.730Z,1
2023-05-12T06:10:14.989Z,1
2023-05-12T06:11:16.563Z,1
2023-05-12T06:12:14.857Z,3
2023-05-12T06:16:14.933Z,3
2023-05-12T06:17:15.179Z,1
2023-05-12T06:18:15.212Z,1
2023-05-12T06:19:15.919Z,1
2023-05-12T06:20:15.127Z,1
2023-05-12T06:21:15.513Z,1
2023-05-12T06:22:14.536Z,1
2023-05-12T06:23:14.975Z,1
2023-05-12T06:24:15.350Z,1
2023-05-12T06:25:14.644Z,1
2023-05-12T06:26:14.770Z,1
2023-05-12T06:27:14.948Z,3
2023-05-12T06:28:15.503Z,3
2023-05-12T06:29:15.157Z,3
2023-05-12T06:30:16.084Z,3
2023-05-12T06:33:15.319Z,1
2023-05-12T06:34:15.208Z,1
2023-05-12T06:35:14.676Z,1
2023-05-12T06:36:14.962Z,1
2023-05-12T06:37:15.373Z,5
2023-05-12T06:38:15.631Z,5
2023-05-12T06:40:14.903Z,5
2023-05-12T06:41:15.181Z,5
2023-05-12T06:42:15.075Z,5
2023-05-12T06:43:14.468Z,5
2023-05-12T06:44:14.972Z,5
2023-05-12T06:45:14.590Z,5
2023-05-12T06:46:15.029Z,5
2023-05-12T06:47:15.444Z,5
2023-05-12T06:48:15.992Z,5
2023-05-12T06:51:14.942Z,5
2023-05-12T06:52:15.386Z,3
2023-05-12T06:53:15.301Z,3
2023-05-12T06:54:14.690Z,3
2023-05-12T06:55:15.188Z,3
2023-05-12T06:56:15.189Z,3
2023-05-12T06:59:14.715Z,5
2023-05-12T07:00:15.269Z,5
2023-05-12T07:01:15.800Z,5
2023-05-12T07:02:15.399Z,3
2023-05-12T07:03:16.184Z,3
2023-05-12T07:04:15.175Z,3
2023-05-12T07:05:14.870Z,3
2023-05-12T07:06:15.605Z,3
2023-05-12T07:11:13.964Z,5
2023-05-12T07:12:14.718Z,4
2023-05-12T07:13:15.346Z,4
2023-05-12T07:14:14.532Z,4
2023-05-12T07:15:14.813Z,4
2023-05-12T07:16:15.428Z,4
2023-05-12T07:17:15.463Z,1
2023-05-12T07:18:14.995Z,1
2023-05-12T07:19:15.707Z,1
2023-05-12T07:20:15.725Z,1
2023-05-12T07:22:14.572Z,1
2023-05-12T07:23:14.866Z,1
2023-05-12T07:24:15.192Z,1
2023-05-12T07:25:15.557Z,1
2023-05-12T07:26:15.430Z,1
2023-05-12T07:32:14.857Z,4
2023-05-12T07:33:15.547Z,4
2023-05-12T07:34:15.189Z,4
2023-05-12T07:35:14.445Z,4
2023-05-12T07:36:14.977Z,4
2023-05-12T07:37:15.252Z,7
2023-05-12T07:38:15.341Z,7
2023-05-12T07:39:14.862Z,7
2023-05-12T07:40:14.972Z,7
2023-05-12T07:41:15.238Z,7
2023-05-12T07:42:15.429Z,3
2023-05-12T07:45:15.093Z,3
2023-05-12T07:46:15.059Z,3
2023-05-12T07:47:15.833Z,3
2023-05-12T07:48:15.015Z,3
2023-05-12T07:50:14.862Z,3
2023-05-12T07:51:15.397Z,3
2023-05-12T07:52:15.202Z,3
2023-05-12T07:53:14.792Z,3
2023-05-12T07:54:14.995Z,3
2023-05-12T07:55:15.239Z,3
2023-05-12T08:01:14.693Z,4
2023-05-12T08:02:15.298Z,6
2023-05-12T08:03:15.795Z,6
2023-05-12T08:04:16.176Z,6
2023-05-12T08:05:15.554Z,6
2023-05-12T08:06:15.517Z,6
2023-05-12T08:07:14.569Z,8
2023-05-12T08:08:15.039Z,8
2023-05-12T08:09:15.336Z,8
2023-05-12T08:10:14.851Z,8
2023-05-12T08:11:14.928Z,8
2023-05-12T08:15:14.928Z,3
2023-05-12T08:16:15.091Z,3
2023-05-12T08:17:15.706Z,11
2023-05-12T08:18:15.046Z,11
2023-05-12T08:19:15.670Z,11
2023-05-12T08:20:15.340Z,11
2023-05-12T08:21:15.572Z,11
2023-05-12T08:23:15.138Z,8
2023-05-12T08:24:14.667Z,8
2023-05-12T08:25:18.278Z,8
2023-05-12T08:26:14.918Z,8
2023-05-12T08:27:15.331Z,9
2023-05-12T08:28:15.471Z,9
2023-05-12T08:30:14.765Z,9
2023-05-12T08:32:15.019Z,7
2023-05-12T08:33:15.522Z,7
2023-05-12T08:34:21.691Z,7
2023-05-12T08:35:14.727Z,7
2023-05-12T08:36:14.956Z,7
2023-05-12T08:37:15.393Z,9
2023-05-12T08:38:15.533Z,9
2023-05-12T08:41:14.892Z,9
2023-05-12T08:42:15.176Z,5
2023-05-12T08:43:14.638Z,5
2023-05-12T08:44:15.078Z,5
2023-05-12T08:45:15.582Z,5
2023-05-12T08:46:15.052Z,5
2023-05-12T08:47:15.410Z,3
2023-05-12T08:48:14.939Z,3
2023-05-12T08:49:14.821Z,3
2023-05-12T08:50:15.350Z,3
2023-05-12T08:52:14.842Z,6
2023-05-12T08:53:15.338Z,6
2023-05-12T08:54:15.409Z,6
2023-05-12T08:55:14.795Z,6
2023-05-12T08:58:16.150Z,5
2023-05-12T08:59:14.808Z,5
2023-05-12T09:02:15.706Z,7
2023-05-12T09:03:14.767Z,7
2023-05-12T09:04:15.647Z,7
2023-05-12T09:05:15.401Z,7
2023-05-12T09:08:14.459Z,8
2023-05-12T09:09:14.814Z,8
2023-05-12T09:10:34.143Z,8
2023-05-12T09:13:14.725Z,3
2023-05-12T09:14:15.186Z,3
2023-05-12T09:15:15.257Z,3
2023-05-12T09:16:15.863Z,3
2023-05-12T09:17:14.809Z,9
2023-05-12T09:18:15.285Z,9
2023-05-12T09:20:35.834Z,9
2023-05-12T09:24:15.486Z,5
2023-05-12T09:25:17.132Z,5
2023-05-12T09:26:14.690Z,5
2023-05-12T09:33:15.362Z,4
2023-05-12T09:36:14.705Z,4
2023-05-12T09:37:17.671Z,7
2023-05-12T09:38:15.757Z,7
2023-05-12T09:42:14.863Z,4
2023-05-12T09:43:17.907Z,4
2023-05-12T09:44:15.320Z,4
2023-05-12T09:45:15.354Z,4
2023-05-12T09:46:15.687Z,4
2023-05-12T09:47:15.124Z,6
2023-05-12T09:48:15.563Z,6
2023-05-12T09:49:14.797Z,6
2023-05-12T09:50:14.978Z,6
2023-05-12T09:51:15.144Z,6
2023-05-12T09:52:15.517Z,5
2023-05-12T09:53:14.779Z,5
2023-05-12T09:55:15.483Z,5
2023-05-12T09:56:15.563Z,5
2023-05-12T09:57:15.980Z,4
2023-05-12T09:58:14.554Z,4
2023-05-12T09:59:14.483Z,4
2023-05-12T10:01:25.480Z,4
2023-05-12T10:04:15.122Z,5
2023-05-12T10:05:15.908Z,5
2023-05-12T10:06:16.707Z,5
2023-05-12T10:07:14.809Z,3
2023-05-12T10:08:15.305Z,3
2023-05-12T10:11:15.251Z,3
2023-05-12T10:12:14.693Z,5
2023-05-12T10:13:14.906Z,5
2023-05-12T10:14:14.934Z,5
2023-05-12T10:15:15.087Z,5
2023-05-12T10:16:14.796Z,5
2023-05-12T10:17:15.345Z,4
2023-05-12T10:18:15.863Z,4
2023-05-12T10:19:14.804Z,4
2023-05-12T10:20:14.912Z,4
2023-05-12T10:21:15.576Z,4
2023-05-12T10:25:15.372Z,5
2023-05-12T10:26:15.078Z,5
2023-05-12T10:27:15.590Z,4
2023-05-12T10:28:14.655Z,4
2023-05-12T10:29:15.081Z,4
2023-05-12T10:30:15.342Z,4
2023-05-12T10:31:15.105Z,4
2023-05-12T10:34:15.178Z,5
2023-05-12T10:35:15.377Z,5
2023-05-12T10:36:15.215Z,5
2023-05-12T10:37:15.520Z,6
2023-05-12T10:38:14.575Z,6
2023-05-12T10:39:14.978Z,6
2023-05-12T10:40:15.472Z,6
2023-05-12T10:43:14.633Z,4
2023-05-12T10:44:15.288Z,4
2023-05-12T10:45:15.386Z,4
2023-05-12T10:46:15.106Z,4
2023-05-12T10:47:15.365Z,4
2023-05-12T10:48:15.684Z,4
2023-05-12T10:49:14.755Z,4
2023-05-12T10:50:14.869Z,4
2023-05-12T10:51:15.093Z,4
2023-05-12T10:54:14.473Z,5
2023-05-12T10:55:15.538Z,5
2023-05-12T10:56:17.112Z,5
2023-05-12T11:01:19.406Z,11
2023-05-12T11:02:22.706Z,11
2023-05-12T11:03:28.875Z,11
2023-05-12T11:07:19.567Z,8
2023-05-12T11:08:17.907Z,8
2023-05-12T11:09:20.120Z,8
2023-05-12T11:10:18.158Z,8
2023-05-12T11:11:18.239Z,8
2023-05-12T11:12:15.888Z,5
2023-05-12T11:15:16.120Z,5
2023-05-12T11:16:14.995Z,5
2023-05-12T11:17:15.137Z,9
2023-05-12T11:18:15.852Z,9
2023-05-12T11:19:15.253Z,9
2023-05-12T11:20:15.148Z,9
2023-05-12T11:21:15.235Z,9
2023-05-12T11:22:15.471Z,8
2023-05-12T11:25:15.192Z,8
2023-05-12T11:26:15.394Z,8
2023-05-12T11:27:14.641Z,5
2023-05-12T11:28:15.026Z,5
2023-05-12T11:29:15.113Z,5
2023-05-12T11:31:15.200Z,5
2023-05-12T11:32:15.905Z,4
2023-05-12T11:33:15.358Z,4
2023-05-12T11:35:15.254Z,4
2023-05-12T11:36:15.455Z,4
2023-05-12T11:39:14.583Z,6
2023-05-12T11:40:14.918Z,6
2023-05-12T11:41:15.263Z,6
2023-05-12T11:42:28.680Z,6
2023-05-12T11:45:15.066Z,6
2023-05-12T11:46:15.512Z,6
2023-05-12T11:47:15.192Z,8
2023-05-12T11:48:15.268Z,8
2023-05-12T11:51:15.287Z,8
2023-05-12T11:52:14.629Z,4
2023-05-12T11:53:15.079Z,4
2023-05-12T11:54:15.232Z,4
2023-05-12T11:55:15.614Z,4
2023-05-12T11:56:15.566Z,4
2023-05-12T11:57:14.913Z,7
2023-05-12T11:58:15.229Z,7
2023-05-12T11:59:15.412Z,7
2023-05-12T12:00:15.570Z,7
2023-05-12T12:01:14.829Z,7
2023-05-12T12:02:15.298Z,9
2023-05-12T12:03:16.717Z,9
2023-05-12T12:04:16.189Z,9
2023-05-12T12:06:14.711Z,9
2023-05-12T12:07:15.652Z,3
2023-05-12T12:08:15.183Z,3
2023-05-12T12:09:15.388Z,3
2023-05-12T12:10:14.520Z,3
2023-05-12T12:12:15.327Z,3
2023-05-12T12:13:14.806Z,3
2023-05-12T12:14:14.999Z,3
2023-05-12T12:15:15.435Z,3
2023-05-12T12:16:18.267Z,3
2023-05-12T12:17:15.280Z,5
2023-05-12T12:21:14.798Z,5
2023-05-12T12:22:15.222Z,5
2023-05-12T12:23:15.693Z,5
2023-05-12T12:24:14.806Z,5
2023-05-12T12:25:15.175Z,5
2023-05-12T12:26:15.090Z,5
2023-05-12T12:27:15.439Z,3
2023-05-12T12:31:15.209Z,3
2023-05-12T12:32:14.704Z,5
2023-05-12T12:33:16.141Z,5
2023-05-12T12:35:14.836Z,5
2023-05-12T12:36:15.554Z,5
2023-05-12T12:37:14.755Z,6
2023-05-12T12:38:15.193Z,6
2023-05-12T12:39:15.008Z,6
2023-05-12T12:40:15.459Z,6
2023-05-12T12:41:14.932Z,6
2023-05-12T12:42:15.161Z,9
2023-05-12T12:45:15.115Z,9
2023-05-12T12:46:15.242Z,9
2023-05-12T12:47:15.858Z,14
2023-05-12T12:48:14.773Z,14
2023-05-12T12:49:14.699Z,14
2023-05-12T12:50:15.369Z,14
2023-05-12T12:56:15.323Z,5
2023-05-12T12:57:15.638Z,5
2023-05-12T12:58:15.104Z,5
2023-05-12T12:59:15.210Z,5
2023-05-12T13:00:14.439Z,5
2023-05-12T13:01:14.997Z,5
2023-05-12T13:02:15.386Z,4
2023-05-12T13:03:16.146Z,4
2023-05-12T13:04:15.646Z,4
2023-05-12T13:05:14.882Z,4
2023-05-12T13:06:15.062Z,4
2023-05-12T13:07:15.400Z,4
2023-05-12T13:08:15.564Z,4
2023-05-12T13:09:14.801Z,4
2023-05-12T13:10:15.172Z,4
2023-05-12T13:14:14.647Z,6
2023-05-12T13:15:15.764Z,6
2023-05-12T13:16:14.957Z,6
2023-05-12T13:17:15.574Z,1
2023-05-12T13:18:15.944Z,1
2023-05-12T13:19:15.261Z,1
2023-05-12T13:20:15.262Z,1
2023-05-12T13:21:15.361Z,1
2023-05-12T13:22:14.685Z,3
2023-05-12T13:23:14.939Z,3
2023-05-12T13:24:15.292Z,3
2023-05-12T13:25:16.196Z,3
2023-05-12T13:26:14.879Z,3
2023-05-12T13:27:15.142Z,6
2023-05-12T13:28:15.769Z,6
2023-05-12T13:29:14.905Z,6
2023-05-12T13:30:17.655Z,6
2023-05-12T13:34:15.568Z,7
2023-05-12T13:35:14.563Z,7
2023-05-12T13:36:15.340Z,7
2023-05-12T13:37:14.889Z,8
2023-05-12T13:38:15.517Z,8
2023-05-12T13:39:14.670Z,8
2023-05-12T13:40:14.887Z,8
2023-05-12T13:41:15.444Z,8
2023-05-12T13:42:14.660Z,5
2023-05-12T13:43:14.820Z,5
2023-05-12T13:44:15.482Z,5
2023-05-12T13:45:14.810Z,5
2023-05-12T13:46:15.889Z,5
2023-05-12T13:47:14.686Z,15
2023-05-12T13:48:15.404Z,15
2023-05-12T13:50:14.705Z,15
2023-05-12T13:51:15.577Z,15
2023-05-12T13:55:23.725Z,12
2023-05-12T13:58:15.011Z,7
2023-05-12T13:59:15.325Z,7
2023-05-12T14:00:15.601Z,7
2023-05-12T14:01:17.450Z,7
2023-05-12T14:02:16.014Z,7
2023-05-12T14:03:15.449Z,7
2023-05-12T14:04:15.702Z,7
2023-05-12T14:05:15.065Z,7
2023-05-12T14:06:15.598Z,7
2023-05-12T14:07:17.038Z,9
2023-05-12T14:08:15.524Z,9
2023-05-12T14:09:14.755Z,9
2023-05-12T14:10:15.132Z,9
2023-05-12T14:11:15.134Z,9
2023-05-12T14:12:15.521Z,7
2023-05-12T14:13:17.102Z,7
2023-05-12T14:14:15.269Z,7
2023-05-12T14:17:15.101Z,5
2023-05-12T14:18:17.075Z,5
2023-05-12T14:19:14.697Z,5
2023-05-12T14:20:14.851Z,5
2023-05-12T14:21:15.247Z,5
2023-05-12T14:28:14.980Z,7
2023-05-12T14:29:17.559Z,7
2023-05-12T14:30:15.714Z,7
2023-05-12T14:31:14.836Z,7
2023-05-12T14:32:15.604Z,9
2023-05-12T14:33:15.797Z,9
2023-05-12T14:34:14.322Z,9
2023-05-12T14:36:18.952Z,9
2023-05-12T14:37:15.069Z,4
2023-05-12T14:38:15.510Z,4
2023-05-12T14:39:14.597Z,4
2023-05-12T14:40:15.446Z,4
2023-05-12T14:41:15.360Z,4
2023-05-12T14:42:15.695Z,4
2023-05-12T14:47:17.567Z,7
2023-05-12T14:48:14.867Z,7
2023-05-12T14:49:15.271Z,7
2023-05-12T14:50:15.534Z,7
2023-05-12T14:51:15.083Z,7
2023-05-12T14:52:15.395Z,6
2023-05-12T14:55:16.412Z,6
2023-05-12T14:59:14.599Z,8
2023-05-12T15:00:15.232Z,8
2023-05-12T15:02:14.932Z,5
2023-05-12T15:03:15.312Z,5
2023-05-12T15:04:15.064Z,5
2023-05-12T15:05:15.205Z,5
2023-05-12T15:06:20.701Z,5
2023-05-12T15:07:14.850Z,9
2023-05-12T15:08:15.174Z,9
2023-05-12T15:09:15.621Z,9
2023-05-12T15:10:14.997Z,9
2023-05-12T15:11:15.019Z,9
2023-05-12T15:12:15.444Z,8
2023-05-12T15:13:15.282Z,8
2023-05-12T15:14:15.677Z,8
2023-05-12T15:15:14.541Z,8
2023-05-12T15:16:14.718Z,8
2023-05-12T15:17:15.665Z,5
2023-05-12T15:18:15.771Z,5
2023-05-12T15:19:16.114Z,5
2023-05-12T15:20:14.881Z,5
2023-05-12T15:21:14.919Z,5
2023-05-12T15:22:15.454Z,3
2023-05-12T15:23:15.341Z,3
2023-05-12T15:26:44.010Z,3
2023-05-12T15:27:14.366Z,5
2023-05-12T15:28:15.028Z,5
2023-05-12T15:29:15.062Z,5
2023-05-12T15:30:15.725Z,5
2023-05-12T15:34:15.434Z,4
2023-05-12T15:35:14.598Z,4
2023-05-12T15:36:15.224Z,4
2023-05-12T15:37:14.920Z,4
2023-05-12T15:39:14.774Z,4
2023-05-12T15:40:15.061Z,4
2023-05-12T15:41:15.304Z,4
2023-05-12T15:44:14.560Z,3
2023-05-12T15:45:14.853Z,3
2023-05-12T15:46:15.429Z,3
2023-05-12T15:47:15.540Z,4
2023-05-12T15:48:16.406Z,4
2023-05-12T15:49:14.567Z,4
2023-05-12T15:50:15.033Z,4
2023-05-12T15:51:15.356Z,4
2023-05-12T15:52:14.318Z,4
2023-05-12T15:53:14.806Z,4
2023-05-12T15:55:14.459Z,4
2023-05-12T15:56:15.222Z,4
2023-05-12T15:57:14.609Z,3
2023-05-12T15:58:15.035Z,3
2023-05-12T15:59:15.412Z,3
2023-05-12T16:00:16.049Z,3
2023-05-12T16:01:15.453Z,3
2023-05-12T16:02:15.177Z,3
2023-05-12T16:03:16.098Z,3
2023-05-12T16:05:14.858Z,3
2023-05-12T16:06:15.772Z,3
2023-05-12T16:07:15.621Z,5
2023-05-12T16:08:15.136Z,5
2023-05-12T16:09:15.274Z,5
2023-05-12T16:10:15.412Z,5
2023-05-12T16:13:15.531Z,5
2023-05-12T16:14:14.606Z,5
2023-05-12T16:15:14.898Z,5
2023-05-12T16:16:15.153Z,5
2023-05-12T16:17:15.814Z,4
2023-05-12T16:18:20.487Z,4
2023-05-12T16:19:14.077Z,4
2023-05-12T16:20:15.257Z,4
2023-05-12T16:25:15.947Z,5
2023-05-12T16:26:14.998Z,5
2023-05-12T16:27:15.372Z,7
2023-05-12T16:28:15.303Z,7
2023-05-12T16:29:14.860Z,7
2023-05-12T16:30:16.206Z,7
2023-05-12T16:31:15.655Z,7
2023-05-12T16:34:14.555Z,6
2023-05-12T16:35:14.739Z,6
2023-05-12T16:36:14.880Z,6
2023-05-12T16:37:14.915Z,8
2023-05-12T16:38:15.183Z,8
2023-05-12T16:39:15.447Z,8
2023-05-12T16:40:14.755Z,8
2023-05-12T16:41:15.104Z,8
2023-05-12T16:42:15.316Z,11
2023-05-12T16:43:15.517Z,11
2023-05-12T16:44:14.919Z,11
2023-05-12T16:45:15.110Z,11
2023-05-12T16:46:15.806Z,11
2023-05-12T16:47:14.880Z,8
2023-05-12T16:48:15.402Z,8
2023-05-12T16:50:14.886Z,8
2023-05-12T16:51:15.311Z,8
2023-05-12T16:52:16.851Z,4
2023-05-12T16:53:14.741Z,4
2023-05-12T16:54:15.333Z,4
2023-05-12T16:55:15.480Z,4
2023-05-12T16:56:15.151Z,4
2023-05-12T16:57:15.261Z,3
2023-05-12T16:58:15.697Z,3
2023-05-12T16:59:14.937Z,3
2023-05-12T17:00:15.191Z,3
2023-05-12T17:01:15.034Z,3
2023-05-12T17:02:15.788Z,6
2023-05-12T17:04:14.849Z,6
2023-05-12T17:05:14.807Z,6
2023-05-12T17:06:15.411Z,6
2023-05-12T17:12:14.724Z,1
2023-05-12T17:13:15.062Z,1
2023-05-12T17:14:16.220Z,1
2023-05-12T17:15:21.297Z,1
2023-05-12T17:16:14.847Z,1
2023-05-12T17:17:14.983Z,5
2023-05-12T17:18:15.432Z,5
2023-05-12T17:19:23.248Z,5
2023-05-12T17:20:14.507Z,5
2023-05-12T17:21:14.949Z,5
2023-05-12T17:22:15.056Z,8
2023-05-12T17:23:15.180Z,8
2023-05-12T17:24:14.515Z,8
2023-05-12T17:25:14.978Z,8
2023-05-12T17:26:14.790Z,8
2023-05-12T17:27:15.578Z,7
2023-05-12T17:28:14.931Z,7
2023-05-12T17:29:14.974Z,7
2023-05-12T17:30:15.551Z,7
2023-05-12T17:31:15.416Z,7
2023-05-12T17:34:14.844Z,8
2023-05-12T17:35:14.886Z,8
2023-05-12T17:36:23.366Z,8
2023-05-12T17:37:15.333Z,5
2023-05-12T17:38:15.308Z,5
2023-05-12T17:40:14.707Z,5
2023-05-12T17:41:15.042Z,5
2023-05-12T17:42:15.372Z,3
2023-05-12T17:43:14.207Z,3
2023-05-12T17:44:14.675Z,3
2023-05-12T17:45:14.781Z,3
2023-05-12T17:46:15.498Z,3
2023-05-12T17:47:16.258Z,3
2023-05-12T17:49:15.188Z,3
2023-05-12T17:52:15.024Z,5
2023-05-12T17:53:15.323Z,5
2023-05-12T17:54:15.469Z,5
2023-05-12T17:55:14.943Z,5
2023-05-12T17:56:15.164Z,5
2023-05-12T17:57:14.697Z,3
2023-05-12T17:58:14.752Z,3
2023-05-12T17:59:15.337Z,3
2023-05-12T18:00:14.982Z,3
2023-05-12T18:01:16.075Z,3
2023-05-12T18:04:15.478Z,5
2023-05-12T18:05:14.931Z,5
2023-05-12T18:06:15.183Z,5
2023-05-12T18:07:15.387Z,5
2023-05-12T18:08:14.481Z,5
2023-05-12T18:09:14.884Z,5
2023-05-12T18:10:15.250Z,5
2023-05-12T18:11:15.228Z,5
2023-05-12T18:12:15.329Z,3
2023-05-12T18:14:14.760Z,3
2023-05-12T18:15:15.017Z,3
2023-05-12T18:16:34.027Z,3
2023-05-12T18:19:15.493Z,7
2023-05-12T18:20:15.537Z,7
2023-05-12T18:21:14.790Z,7
2023-05-12T18:22:15.229Z,7
2023-05-12T18:23:15.287Z,7
2023-05-12T18:24:15.350Z,7
2023-05-12T18:28:15.383Z,6
2023-05-12T18:29:14.926Z,6
2023-05-12T18:30:15.358Z,6
2023-05-12T18:32:15.256Z,5
2023-05-12T18:33:15.410Z,5
2023-05-12T18:35:14.979Z,5
2023-05-12T18:36:15.306Z,5
2023-05-12T18:37:14.136Z,4
2023-05-12T18:38:15.443Z,4
2023-05-12T18:39:16.199Z,4
2023-05-12T18:43:14.362Z,14